createdAt,value
2018-07-21T00:02:28.172Z,11.87
2018-07-21T00:04:56.663Z,12.03
2018-07-21T00:07:26.075Z,10.80
2018-07-21T00:09:54.577Z,10.27
2018-07-21T00:12:23.121Z,9.67
2018-07-21T00:14:51.630Z,10.20
2018-07-21T00:17:20.187Z,10.63
2018-07-21T00:19:48.786Z,10.40
2018-07-21T00:22:17.353Z,9.77
2018-07-21T00:24:45.862Z,9.87
2018-07-21T00:27:14.481Z,10.10
2018-07-21T00:29:42.981Z,10.50
2018-07-21T00:32:11.494Z,11.50
2018-07-21T00:34:39.982Z,10.83
2018-07-21T00:37:08.542Z,11.63
2018-07-21T00:39:37.075Z,11.10
2018-07-21T00:42:05.634Z,10.50
2018-07-21T00:44:34.145Z,11.37
2018-07-21T00:47:02.758Z,11.93
2018-07-21T00:49:31.297Z,10.90
2018-07-21T00:51:59.867Z,11.67
2018-07-21T00:54:28.457Z,11.03
2018-07-21T00:56:56.982Z,10.97
2018-07-21T00:59:26.772Z,10.50
2018-07-21T01:01:55.282Z,10.43
2018-07-21T01:04:23.777Z,10.37
2018-07-21T01:06:52.310Z,10.80
2018-07-21T01:09:20.863Z,11.80
2018-07-21T01:11:49.426Z,11.10
2018-07-21T01:14:17.943Z,10.53
2018-07-21T01:16:46.521Z,9.83
2018-07-21T01:19:15.069Z,10.73
2018-07-21T01:21:43.598Z,11.17
2018-07-21T01:24:12.214Z,11.13
2018-07-21T01:26:40.789Z,11.20
2018-07-21T01:29:09.396Z,10.37
2018-07-21T01:31:37.963Z,10.33
2018-07-21T01:34:07.321Z,10.37
2018-07-21T01:36:35.861Z,10.77
2018-07-21T01:39:06.279Z,10.70
2018-07-21T01:41:34.790Z,10.57
2018-07-21T01:44:03.335Z,10.97
2018-07-21T01:46:31.898Z,11.10
2018-07-21T01:49:00.442Z,11.47
2018-07-21T01:51:28.995Z,11.10
2018-07-21T01:53:57.654Z,10.80
2018-07-21T01:56:26.418Z,10.90
2018-07-21T01:58:54.930Z,11.03
2018-07-21T02:01:23.485Z,10.80
2018-07-21T02:03:51.978Z,11.47
2018-07-21T02:06:20.505Z,11.80
2018-07-21T02:08:49.026Z,10.73
2018-07-21T02:11:17.541Z,11.53
2018-07-21T02:13:46.099Z,11.33
2018-07-21T02:16:14.618Z,10.53
2018-07-21T02:18:43.185Z,10.73
2018-07-21T02:21:11.814Z,11.43
2018-07-21T02:23:40.393Z,10.50
2018-07-21T02:26:08.953Z,11.10
2018-07-21T02:28:37.489Z,10.57
2018-07-21T02:31:06.065Z,10.30
2018-07-21T02:33:34.649Z,10.80
2018-07-21T02:36:03.162Z,10.63
2018-07-21T02:38:31.728Z,10.80
2018-07-21T02:41:00.265Z,10.60
2018-07-21T02:43:28.897Z,12.03
2018-07-21T02:45:57.444Z,12.00
2018-07-21T02:48:26.009Z,11.77
2018-07-21T02:50:54.532Z,11.03
2018-07-21T02:53:23.103Z,11.40
2018-07-21T02:55:51.634Z,11.23
2018-07-21T02:58:20.174Z,11.67
2018-07-21T03:00:48.673Z,12.00
2018-07-21T03:03:17.282Z,11.53
2018-07-21T03:05:45.788Z,11.10
2018-07-21T03:08:15.103Z,11.33
2018-07-21T03:10:43.988Z,10.83
2018-07-21T03:13:12.526Z,11.03
2018-07-21T03:15:41.127Z,10.93
2018-07-21T03:18:09.677Z,10.87
2018-07-21T03:20:38.199Z,10.87
2018-07-21T03:23:07.219Z,11.70
2018-07-21T03:25:36.755Z,10.83
2018-07-21T03:28:05.357Z,11.40
2018-07-21T03:30:33.871Z,11.10
2018-07-21T03:33:02.438Z,10.97
2018-07-21T03:35:30.917Z,11.47
2018-07-21T03:37:59.418Z,11.43
2018-07-21T03:40:27.994Z,11.13
2018-07-21T03:42:56.796Z,11.30
2018-07-21T03:45:25.876Z,10.73
2018-07-21T03:47:54.510Z,11.13
2018-07-21T03:50:23.650Z,10.83
2018-07-21T03:52:52.169Z,11.00
2018-07-21T03:55:20.738Z,10.60
2018-07-21T03:57:49.302Z,10.83
2018-07-21T04:00:17.845Z,10.43
2018-07-21T04:02:46.391Z,10.53
2018-07-21T04:05:14.922Z,10.77
2018-07-21T04:07:44.385Z,11.00
2018-07-21T04:10:12.914Z,10.57
2018-07-21T04:12:42.078Z,10.20
2018-07-21T04:15:10.599Z,10.03
2018-07-21T04:17:39.689Z,10.37
2018-07-21T04:20:08.239Z,10.80
2018-07-21T04:22:36.728Z,10.17
2018-07-21T04:25:05.622Z,10.20
2018-07-21T04:27:34.162Z,10.70
2018-07-21T04:30:02.788Z,10.07
2018-07-21T04:32:31.317Z,10.60
2018-07-21T04:34:59.918Z,9.77
2018-07-21T04:37:28.509Z,10.67
2018-07-21T04:39:57.026Z,10.30
2018-07-21T04:42:25.565Z,10.73
2018-07-21T04:44:54.137Z,9.97
2018-07-21T04:47:22.665Z,10.13
2018-07-21T04:49:51.226Z,11.30
2018-07-21T04:52:19.750Z,10.47
2018-07-21T04:54:48.286Z,10.00
2018-07-21T04:57:16.877Z,11.00
2018-07-21T04:59:45.428Z,10.53
2018-07-21T05:02:14.897Z,9.93
2018-07-21T05:04:43.445Z,10.47
2018-07-21T05:07:12.283Z,10.20
2018-07-21T05:09:40.834Z,10.20
2018-07-21T05:12:09.361Z,9.73
2018-07-21T05:14:37.931Z,9.70
2018-07-21T05:17:07.179Z,9.43
2018-07-21T05:19:36.461Z,9.30
2018-07-21T05:22:05.035Z,9.67
2018-07-21T05:24:33.601Z,9.37
2018-07-21T05:27:02.138Z,9.13
2018-07-21T05:29:31.425Z,8.83
2018-07-21T05:32:00.014Z,9.17
2018-07-21T05:34:29.722Z,9.37
2018-07-21T05:36:59.234Z,9.73
2018-07-21T05:39:28.691Z,9.40
2018-07-21T05:41:57.222Z,10.03
2018-07-21T05:44:26.547Z,9.63
2018-07-21T05:46:55.131Z,10.23
2018-07-21T05:49:23.698Z,9.20
2018-07-21T05:51:52.286Z,9.30
2018-07-21T05:54:20.822Z,9.40
2018-07-21T05:56:50.221Z,10.33
2018-07-21T05:59:18.917Z,12.17
2018-07-21T06:01:47.465Z,12.10
2018-07-21T06:04:16.222Z,12.17
2018-07-21T06:06:44.785Z,14.00
2018-07-21T06:09:13.925Z,13.30
2018-07-21T06:11:42.467Z,13.63
2018-07-21T06:14:12.231Z,12.53
2018-07-21T06:16:40.830Z,12.13
2018-07-21T06:19:09.351Z,12.53
2018-07-21T06:21:38.407Z,12.27
2018-07-21T06:24:06.937Z,13.13
2018-07-21T06:26:35.724Z,12.10
2018-07-21T06:29:04.298Z,12.97
2018-07-21T06:31:32.874Z,13.20
2018-07-21T06:34:01.408Z,12.93
2018-07-21T06:36:30.956Z,12.67
2018-07-21T06:38:59.818Z,12.23
2018-07-21T06:41:29.457Z,11.73
2018-07-21T06:43:58.094Z,12.60
2018-07-21T06:46:26.666Z,13.10
2018-07-21T06:48:55.190Z,12.23
2018-07-21T06:51:23.811Z,11.23
2018-07-21T06:53:52.381Z,11.40
2018-07-21T06:56:21.073Z,11.27
2018-07-21T06:58:51.328Z,10.77
2018-07-21T07:01:20.773Z,10.97
2018-07-21T07:03:49.345Z,10.23
2018-07-21T07:06:17.899Z,10.60
2018-07-21T07:08:46.422Z,9.97
2018-07-21T07:11:16.164Z,10.53
2018-07-21T07:13:44.703Z,10.37
2018-07-21T07:16:13.407Z,10.60
2018-07-21T07:18:42.514Z,9.90
2018-07-21T07:21:11.353Z,10.73
2018-07-21T07:23:40.175Z,9.73
2018-07-21T07:26:09.258Z,9.63
2018-07-21T07:28:38.919Z,9.90
2018-07-21T07:31:07.569Z,9.47
2018-07-21T07:33:36.917Z,9.40
2018-07-21T07:36:05.594Z,9.63
2018-07-21T07:38:36.328Z,8.90
2018-07-21T07:41:04.892Z,9.03
2018-07-21T07:43:33.663Z,8.37
2018-07-21T07:46:02.366Z,8.87
2018-07-21T07:48:30.917Z,9.03
2018-07-21T07:50:59.506Z,8.83
2018-07-21T07:53:28.131Z,8.63
2018-07-21T07:55:57.650Z,9.03
2018-07-21T07:58:26.347Z,8.63
2018-07-21T08:00:54.946Z,9.00
2018-07-21T08:03:23.746Z,9.23
2018-07-21T08:05:52.322Z,9.33
2018-07-21T08:08:20.907Z,9.73
2018-07-21T08:10:49.433Z,9.23
2018-07-21T08:13:17.990Z,8.83
2018-07-21T08:15:46.586Z,10.03
2018-07-21T08:18:15.130Z,10.73
2018-07-21T08:20:43.748Z,8.60
2018-07-21T08:23:12.319Z,9.40
2018-07-21T08:25:40.828Z,8.60
2018-07-21T08:28:09.526Z,9.23
2018-07-21T08:30:38.078Z,9.03
2018-07-21T08:33:06.748Z,8.47
2018-07-21T08:35:35.322Z,8.43
2018-07-21T08:38:04.533Z,8.63
2018-07-21T08:40:33.105Z,8.30
2018-07-21T08:43:01.638Z,8.87
2018-07-21T08:45:30.135Z,8.30
2018-07-21T08:47:58.644Z,8.30
2018-07-21T08:50:27.131Z,7.93
2018-07-21T08:52:55.642Z,8.67
2018-07-21T08:55:24.134Z,8.73
2018-07-21T08:57:55.675Z,8.50
2018-07-21T09:00:24.161Z,8.40
2018-07-21T09:02:52.671Z,8.47
2018-07-21T09:05:21.186Z,8.20
2018-07-21T09:07:57.060Z,8.37
2018-07-21T09:10:25.555Z,8.60
2018-07-21T09:12:54.081Z,9.20
2018-07-21T09:15:22.550Z,7.90
2018-07-21T09:17:56.152Z,8.10
2018-07-21T09:20:24.609Z,8.03
2018-07-21T09:22:53.126Z,7.80
2018-07-21T09:25:21.634Z,8.27
2018-07-21T09:27:53.516Z,8.47
2018-07-21T09:30:22.002Z,9.00
2018-07-21T09:32:50.510Z,8.40
2018-07-21T09:35:19.314Z,8.30
2018-07-21T09:37:47.822Z,7.83
2018-07-21T09:40:16.363Z,7.90
2018-07-21T09:42:44.913Z,7.70
2018-07-21T09:45:13.410Z,8.20
2018-07-21T09:47:41.939Z,8.30
2018-07-21T09:50:10.927Z,9.20
2018-07-21T09:52:39.850Z,7.83
2018-07-21T09:55:09.430Z,7.90
2018-07-21T09:57:38.482Z,8.10
2018-07-21T10:00:09.091Z,8.67
2018-07-21T10:02:37.730Z,7.97
2018-07-21T10:05:06.220Z,8.30
2018-07-21T10:07:34.754Z,8.57
2018-07-21T10:10:03.594Z,8.10
2018-07-21T10:12:32.151Z,10.23
2018-07-21T10:15:00.624Z,7.70
2018-07-21T10:17:29.119Z,10.57
2018-07-21T10:19:57.607Z,7.70
2018-07-21T10:22:26.546Z,9.10
2018-07-21T10:25:00.506Z,8.03
2018-07-21T10:27:34.394Z,8.68
2018-07-21T10:30:02.871Z,8.75
2018-07-21T10:32:37.125Z,9.58
2018-07-21T10:35:06.363Z,8.40
2018-07-21T10:37:34.893Z,8.40
2018-07-21T10:40:03.556Z,8.18
2018-07-21T10:42:32.074Z,8.33
2018-07-21T10:45:01.154Z,8.20
